createdAt,value
2022-08-01T00:00:27.314Z,568.45
2022-08-01T00:03:11.381Z,560.22
2022-08-01T00:05:44.619Z,556.72
2022-08-01T00:08:15.898Z,563.90
2022-08-01T00:10:49.952Z,551.70
2022-08-01T00:13:21.255Z,565.60
2022-08-01T00:15:54.091Z,564.42
2022-08-01T00:18:25.733Z,562.13
2022-08-01T00:20:57.215Z,549.03
2022-08-01T00:23:28.465Z,558.20
2022-08-01T00:26:02.729Z,557.30
2022-08-01T00:28:34.054Z,558.55
2022-08-01T00:31:05.594Z,562.47
2022-08-01T00:33:37.003Z,561.55
2022-08-01T00:36:08.766Z,556.25
2022-08-01T00:38:39.995Z,571.95
2022-08-01T00:41:14.343Z,560.70
2022-08-01T00:43:45.804Z,564.58
2022-08-01T00:46:17.325Z,553.25
2022-08-01T00:48:48.619Z,553.67
2022-08-01T00:51:21.270Z,555.15
2022-08-01T00:53:53.959Z,569.45
2022-08-01T00:56:30.431Z,563.90
2022-08-01T00:59:02.054Z,562.97
2022-08-01T01:04:11.341Z,554.40
2022-08-01T01:06:50.772Z,547.42
2022-08-01T01:09:30.774Z,553.83
2022-08-01T01:12:15.289Z,553.45
2022-08-01T01:14:51.717Z,554.42
2022-08-01T01:17:51.234Z,551.85
2022-08-01T01:20:27.666Z,544.30
2022-08-01T01:23:16.302Z,556.63
2022-08-01T01:26:08.533Z,549.00
2022-08-01T01:28:45.520Z,548.85
2022-08-01T01:31:22.507Z,549.05
2022-08-01T01:33:54.560Z,543.30
2022-08-01T01:36:28.790Z,539.15
2022-08-01T01:39:00.888Z,550.45
2022-08-01T01:41:34.302Z,536.72
2022-08-01T01:44:07.409Z,550.90
2022-08-01T01:46:43.013Z,543.83
2022-08-01T01:49:15.557Z,550.28
2022-08-01T01:51:57.410Z,550.10
2022-08-01T01:54:39.026Z,542.67
2022-08-01T01:57:12.661Z,547.80
2022-08-01T01:59:45.013Z,544.70
2022-08-01T02:04:52.089Z,537.65
2022-08-01T02:07:28.578Z,537.95
2022-08-01T02:10:01.956Z,544.58
2022-08-01T02:12:37.183Z,545.38
2022-08-01T02:15:10.667Z,551.75
2022-08-01T02:17:48.155Z,539.65
2022-08-01T02:20:20.187Z,538.08
2022-08-01T02:22:57.130Z,544.80
2022-08-01T02:25:33.247Z,540.80
2022-08-01T02:28:09.981Z,542.22
2022-08-01T02:30:44.164Z,548.22
2022-08-01T02:33:22.444Z,544.40
2022-08-01T02:36:31.757Z,546.70
2022-08-01T02:38:49.842Z,537.05
2022-08-01T02:41:25.923Z,539.05
2022-08-01T02:44:03.192Z,533.15
2022-08-01T02:46:40.187Z,525.38
2022-08-01T02:49:15.776Z,546.17
2022-08-01T02:51:51.024Z,540.25
2022-08-01T02:54:25.525Z,539.80
2022-08-01T02:56:59.197Z,540.63
2022-08-01T02:59:33.499Z,538.13
2022-08-01T03:02:07.015Z,542.90
2022-08-01T03:04:44.578Z,536.17
2022-08-01T03:07:17.280Z,531.50
2022-08-01T03:09:52.876Z,524.03
2022-08-01T03:12:27.814Z,535.00
2022-08-01T03:15:01.841Z,545.55
2022-08-01T03:17:34.373Z,538.47
2022-08-01T03:20:10.443Z,539.13
2022-08-01T03:22:43.091Z,532.58
2022-08-01T03:25:16.552Z,528.65
2022-08-01T03:27:51.737Z,522.63
2022-08-01T03:30:23.058Z,537.70
2022-08-01T03:32:54.815Z,528.10
2022-08-01T03:35:33.818Z,515.13
2022-08-01T03:38:16.042Z,529.88
2022-08-01T03:40:52.801Z,520.35
2022-08-01T03:43:31.010Z,530.58
2022-08-01T03:46:08.761Z,527.38
2022-08-01T03:48:46.402Z,532.22
2022-08-01T03:51:21.991Z,532.70
2022-08-01T03:53:55.640Z,528.03
2022-08-01T03:56:28.188Z,536.30
2022-08-01T03:59:00.669Z,523.35
2022-08-01T04:01:33.096Z,529.58
2022-08-01T04:04:06.908Z,530.92
2022-08-01T04:06:41.809Z,541.95
2022-08-01T04:09:14.107Z,540.17
2022-08-01T04:11:45.981Z,537.13
2022-08-01T04:16:48.386Z,521.30
2022-08-01T04:19:20.301Z,529.00
2022-08-01T04:21:54.612Z,533.60
2022-08-01T04:24:28.814Z,535.50
2022-08-01T04:27:02.493Z,536.13
2022-08-01T04:29:35.736Z,536.30
2022-08-01T04:32:08.299Z,535.83
2022-08-01T04:34:43.216Z,541.97
2022-08-01T04:37:19.784Z,534.03
2022-08-01T04:39:52.953Z,541.22
2022-08-01T04:42:26.038Z,545.25
2022-08-01T04:45:04.936Z,547.72
2022-08-01T04:47:36.445Z,548.78
2022-08-01T04:52:43.312Z,536.63
2022-08-01T04:55:14.796Z,542.80
2022-08-01T04:57:48.697Z,551.30
2022-08-01T05:00:20.477Z,549.70
2022-08-01T05:02:51.839Z,563.53
2022-08-01T05:05:23.619Z,553.65
2022-08-01T05:07:57.448Z,558.25
2022-08-01T05:10:28.979Z,555.28
2022-08-01T05:13:00.128Z,549.87
2022-08-01T05:15:32.094Z,563.13
2022-08-01T05:18:03.306Z,559.70
2022-08-01T05:20:34.919Z,559.15
2022-08-01T05:23:10.098Z,548.10
2022-08-01T05:25:56.951Z,564.55
2022-08-01T05:28:28.846Z,559.17
2022-08-01T05:31:00.354Z,569.30
2022-08-01T05:33:31.572Z,569.67
2022-08-01T05:36:02.997Z,571.28
2022-08-01T05:38:39.260Z,562.35
2022-08-01T05:41:10.720Z,558.50
2022-08-01T05:43:42.332Z,578.37
2022-08-01T05:48:44.649Z,568.30
2022-08-01T05:53:49.982Z,571.42
2022-08-01T05:56:21.806Z,574.58
2022-08-01T05:58:53.803Z,573.55
2022-08-01T06:01:25.391Z,569.53
2022-08-01T06:03:56.659Z,575.55
2022-08-01T06:06:28.223Z,572.92
2022-08-01T06:09:02.109Z,576.73
2022-08-01T06:11:33.756Z,583.47
2022-08-01T06:14:05.145Z,580.03
2022-08-01T06:16:38.450Z,580.85
2022-08-01T06:19:09.711Z,583.75
2022-08-01T06:21:41.224Z,590.92
2022-08-01T06:24:15.227Z,581.22
2022-08-01T06:26:46.691Z,578.55
2022-08-01T06:29:17.975Z,589.57
2022-08-01T06:31:49.423Z,594.05
2022-08-01T06:34:20.743Z,600.55
2022-08-01T06:36:52.294Z,601.53
2022-08-01T06:39:26.256Z,597.85
2022-08-01T06:41:57.781Z,602.10
2022-08-01T06:44:29.052Z,589.97
2022-08-01T06:47:00.615Z,590.40
2022-08-01T06:49:32.087Z,601.10
2022-08-01T06:52:05.118Z,595.15
2022-08-01T06:54:39.350Z,591.05
2022-08-01T06:57:10.879Z,593.67
2022-08-01T06:59:54.234Z,603.28
2022-08-01T07:02:26.464Z,613.70
2022-08-01T07:05:01.301Z,598.40
2022-08-01T07:07:35.462Z,608.83
2022-08-01T07:10:10.461Z,600.17
2022-08-01T07:12:42.225Z,610.40
2022-08-01T07:15:15.041Z,611.25
2022-08-01T07:17:46.961Z,613.33
2022-08-01T07:20:18.179Z,624.50
2022-08-01T07:22:51.063Z,621.30
2022-08-01T07:25:25.051Z,610.65
2022-08-01T07:27:56.564Z,614.38
2022-08-01T07:30:28.067Z,620.67
2022-08-01T07:35:30.450Z,622.25
2022-08-01T07:38:02.131Z,619.25
2022-08-01T07:40:36.082Z,622.40
2022-08-01T07:43:07.634Z,620.28
2022-08-01T07:45:39.012Z,622.88
2022-08-01T07:48:17.948Z,629.22
2022-08-01T07:50:49.130Z,632.40
2022-08-01T07:53:21.040Z,625.53
2022-08-01T07:55:55.118Z,629.40
2022-08-01T07:58:28.633Z,628.38
2022-08-01T08:00:59.796Z,631.20
2022-08-01T08:03:31.449Z,630.78
2022-08-01T08:06:03.077Z,629.38
2022-08-01T08:08:35.764Z,634.85
2022-08-01T08:11:09.642Z,636.10
2022-08-01T08:13:41.094Z,636.50
2022-08-01T08:16:12.434Z,632.33
2022-08-01T08:18:44.366Z,638.78
2022-08-01T08:21:15.644Z,638.17
2022-08-01T08:23:59.467Z,632.80
2022-08-01T08:26:34.183Z,636.53
2022-08-01T08:29:05.641Z,632.72
2022-08-01T08:31:51.748Z,635.50
2022-08-01T08:34:24.389Z,643.83
2022-08-01T08:36:56.530Z,636.35
2022-08-01T08:39:28.277Z,642.08
2022-08-01T08:42:04.368Z,639.22
2022-08-01T08:44:36.319Z,647.28
2022-08-01T08:47:09.237Z,644.95
2022-08-01T08:49:43.582Z,650.33
2022-08-01T08:52:16.182Z,646.47
2022-08-01T08:54:49.350Z,646.92
2022-08-01T08:57:24.299Z,641.35
2022-08-01T08:59:57.079Z,648.70
2022-08-01T09:02:28.401Z,650.38
2022-08-01T09:05:00.193Z,648.70
2022-08-01T09:07:31.698Z,646.42
2022-08-01T09:12:36.706Z,650.88
2022-08-01T09:15:08.975Z,653.67
2022-08-01T09:17:46.434Z,654.25
2022-08-01T09:20:28.612Z,649.03
2022-08-01T09:25:46.282Z,643.53
2022-08-01T09:28:21.812Z,652.28
2022-08-01T09:30:54.250Z,648.95
2022-08-01T09:33:27.729Z,653.83
2022-08-01T09:36:01.449Z,649.75
2022-08-01T09:38:32.868Z,648.97
2022-08-01T09:41:05.392Z,649.38
2022-08-01T09:43:39.184Z,658.60
2022-08-01T09:46:15.247Z,652.55
2022-08-01T09:49:00.092Z,654.47
2022-08-01T09:51:59.587Z,652.55
2022-08-01T09:54:34.550Z,651.63
2022-08-01T09:57:17.506Z,657.78
2022-08-01T10:00:01.651Z,652.78
2022-08-01T10:02:44.348Z,650.60
2022-08-01T10:05:19.013Z,649.92
2022-08-01T10:08:03.208Z,652.55
2022-08-01T10:10:43.765Z,653.78
2022-08-01T10:13:18.061Z,650.30
2022-08-01T10:15:52.515Z,648.88
2022-08-01T10:18:26.266Z,653.85
2022-08-01T10:20:58.378Z,655.58
2022-08-01T10:23:40.443Z,647.42
2022-08-01T10:26:16.022Z,651.28
2022-08-01T10:28:51.990Z,651.25
2022-08-01T10:31:30.682Z,656.00
2022-08-01T10:34:03.098Z,655.25
2022-08-01T10:36:40.816Z,652.47
2022-08-01T10:39:14.951Z,645.78
2022-08-01T10:41:52.022Z,653.55
2022-08-01T10:44:24.254Z,655.63
2022-08-01T10:47:01.790Z,658.95
2022-08-01T10:49:39.119Z,654.53
2022-08-01T10:52:10.958Z,646.45
2022-08-01T10:54:52.018Z,646.63
2022-08-01T11:00:04.205Z,648.10
2022-08-01T11:02:41.933Z,648.60
2022-08-01T11:05:25.259Z,656.78
2022-08-01T11:07:59.949Z,649.05
2022-08-01T11:10:39.748Z,653.40
2022-08-01T11:13:13.575Z,654.55
2022-08-01T11:15:49.748Z,653.55
2022-08-01T11:18:37.682Z,658.05
2022-08-01T11:21:57.997Z,651.40
2022-08-01T11:24:00.874Z,651.10
2022-08-01T11:26:32.461Z,650.85
2022-08-01T11:29:22.449Z,653.33
2022-08-01T11:31:55.630Z,659.47
2022-08-01T11:34:59.288Z,657.15
2022-08-01T11:37:32.120Z,654.80
2022-08-01T11:40:28.740Z,648.40
2022-08-01T11:43:21.463Z,652.50
2022-08-01T11:45:53.983Z,655.90
2022-08-01T11:48:27.542Z,654.30
2022-08-01T11:51:02.534Z,658.20
2022-08-01T11:53:34.791Z,654.67
2022-08-01T11:56:08.432Z,655.00
2022-08-01T11:58:40.085Z,662.25
2022-08-01T12:01:17.283Z,659.58
2022-08-01T12:03:49.825Z,658.85
2022-08-01T12:06:33.688Z,658.30
2022-08-01T12:09:19.958Z,658.22
2022-08-01T12:11:51.895Z,662.78
2022-08-01T12:14:24.636Z,659.38
2022-08-01T12:16:57.089Z,652.35
2022-08-01T12:19:29.091Z,654.25
2022-08-01T12:22:14.660Z,657.83
2022-08-01T12:24:47.117Z,656.58
2022-08-01T12:27:28.556Z,650.70
2022-08-01T12:32:36.963Z,653.88
2022-08-01T12:35:12.381Z,654.20
2022-08-01T12:37:49.476Z,659.25
2022-08-01T12:40:22.178Z,662.85
2022-08-01T12:42:55.624Z,661.55
2022-08-01T12:45:29.590Z,661.28
2022-08-01T12:48:02.623Z,661.40
2022-08-01T12:50:35.914Z,663.55
2022-08-01T12:53:10.198Z,655.58
2022-08-01T12:55:59.400Z,662.78
2022-08-01T12:58:35.860Z,660.55
2022-08-01T13:01:09.603Z,665.78
2022-08-01T13:03:44.292Z,658.45
2022-08-01T13:06:18.030Z,658.92
2022-08-01T13:08:52.223Z,659.22
2022-08-01T13:11:23.972Z,663.53
2022-08-01T13:13:57.988Z,665.08
2022-08-01T13:16:49.160Z,666.25
2022-08-01T13:19:22.743Z,662.95
2022-08-01T13:22:01.539Z,669.83
2022-08-01T13:24:37.047Z,659.80
2022-08-01T13:27:09.209Z,661.78
2022-08-01T13:29:42.690Z,660.50
2022-08-01T13:32:28.231Z,655.08
2022-08-01T13:35:09.345Z,657.13
2022-08-01T13:37:41.811Z,662.72
2022-08-01T13:40:26.519Z,658.05
2022-08-01T13:42:58.394Z,657.15
2022-08-01T13:48:03.285Z,665.03
2022-08-01T13:53:14.123Z,661.60
2022-08-01T13:55:48.025Z,657.60
2022-08-01T13:58:19.698Z,657.90
2022-08-01T14:00:51.028Z,658.05
2022-08-01T14:03:22.861Z,664.90
2022-08-01T14:08:36.427Z,660.15
2022-08-01T14:11:10.378Z,661.13
2022-08-01T14:13:45.180Z,660.75
2022-08-01T14:16:18.332Z,661.88
2022-08-01T14:18:49.812Z,659.92
2022-08-01T14:21:21.257Z,664.85
2022-08-01T14:26:26.360Z,659.95
2022-08-01T14:28:57.837Z,664.75
2022-08-01T14:31:34.058Z,657.80
2022-08-01T14:34:06.516Z,665.78
2022-08-01T14:36:38.497Z,664.63
2022-08-01T14:39:15.028Z,666.75
2022-08-01T14:41:49.345Z,667.47
2022-08-01T14:44:20.954Z,668.97
2022-08-01T14:46:58.107Z,658.63
2022-08-01T14:49:30.479Z,659.50
2022-08-01T14:52:01.797Z,660.78
2022-08-01T14:54:33.393Z,665.00
2022-08-01T14:57:07.506Z,663.47
2022-08-01T14:59:39.250Z,657.85
2022-08-01T15:02:11.723Z,660.88
2022-08-01T15:04:43.803Z,664.75
2022-08-01T15:07:15.192Z,656.25
2022-08-01T15:09:47.516Z,658.97
2022-08-01T15:12:21.443Z,661.55
2022-08-01T15:14:53.026Z,660.65
2022-08-01T15:17:26.345Z,660.10
2022-08-01T15:20:00.022Z,662.10
2022-08-01T15:22:32.304Z,659.15
2022-08-01T15:25:04.959Z,657.30
2022-08-01T15:27:38.745Z,662.78
2022-08-01T15:30:11.638Z,663.33
2022-08-01T15:32:43.111Z,660.13
2022-08-01T15:35:14.703Z,662.28
2022-08-01T15:37:45.936Z,652.83
2022-08-01T15:42:51.596Z,663.67
2022-08-01T15:45:46.414Z,655.00
2022-08-01T15:48:14.724Z,662.10
2022-08-01T15:50:46.503Z,659.13
2022-08-01T15:53:18.363Z,660.17
2022-08-01T15:55:52.391Z,660.03
2022-08-01T15:58:26.638Z,660.28
2022-08-01T16:00:58.284Z,658.08
2022-08-01T16:03:30.341Z,658.20
2022-08-01T16:06:02.275Z,654.72
2022-08-01T16:08:33.627Z,657.00
2022-08-01T16:13:38.666Z,658.78
2022-08-01T16:16:11.678Z,660.13
2022-08-01T16:18:43.073Z,648.67
2022-08-01T16:21:14.699Z,658.78
2022-08-01T16:23:47.057Z,654.10
2022-08-01T16:26:27.789Z,657.55
2022-08-01T16:29:02.126Z,663.47
2022-08-01T16:31:38.006Z,655.55
2022-08-01T16:34:27.984Z,655.45
2022-08-01T16:37:00.941Z,651.90
2022-08-01T16:42:07.211Z,658.47
2022-08-01T16:44:41.737Z,659.30
2022-08-01T16:47:13.436Z,659.72
2022-08-01T16:49:44.691Z,661.42
2022-08-01T16:54:47.174Z,651.58
2022-08-01T16:59:52.189Z,652.60
2022-08-01T17:02:23.851Z,651.35
2022-08-01T17:04:55.182Z,651.35
2022-08-01T17:07:27.106Z,649.00
2022-08-01T17:10:03.299Z,648.72
2022-08-01T17:12:35.567Z,655.88
2022-08-01T17:15:10.785Z,651.45
2022-08-01T17:17:42.335Z,658.53
2022-08-01T17:20:14.746Z,650.60
2022-08-01T17:22:46.635Z,654.10
2022-08-01T17:25:18.231Z,657.15
2022-08-01T17:27:51.931Z,652.38
2022-08-01T17:30:26.164Z,650.92
2022-08-01T17:32:57.943Z,651.47
2022-08-01T17:35:29.124Z,649.53
2022-08-01T17:38:01.115Z,649.97
2022-08-01T17:40:41.015Z,649.97
2022-08-01T17:43:13.105Z,652.65
2022-08-01T17:45:50.797Z,649.05
2022-08-01T17:48:23.171Z,651.50
2022-08-01T17:53:25.687Z,649.83
2022-08-01T17:55:58.936Z,650.65
2022-08-01T17:58:48.766Z,648.42
2022-08-01T18:01:27.090Z,647.35
2022-08-01T18:03:59.678Z,651.03
2022-08-01T18:06:31.628Z,651.75
2022-08-01T18:09:09.385Z,649.65
2022-08-01T18:11:42.407Z,650.42
2022-08-01T18:14:14.425Z,651.63
2022-08-01T18:16:48.498Z,649.17
2022-08-01T18:19:21.130Z,650.45
2022-08-01T18:21:53.478Z,652.30
2022-08-01T18:24:25.584Z,652.50
2022-08-01T18:26:58.807Z,651.75
2022-08-01T18:29:47.802Z,650.55
2022-08-01T18:32:22.486Z,651.17
2022-08-01T18:34:54.401Z,650.00
2022-08-01T18:37:27.029Z,652.00
2022-08-01T18:40:01.791Z,647.85
2022-08-01T18:42:34.940Z,650.15
2022-08-01T18:47:40.468Z,651.93
2022-08-01T18:50:12.861Z,648.92
2022-08-01T18:52:45.032Z,645.92
2022-08-01T18:55:16.558Z,641.90
2022-08-01T18:57:47.948Z,652.30
2022-08-01T19:02:54.235Z,646.67
2022-08-01T19:05:25.864Z,644.53
2022-08-01T19:08:05.998Z,646.30
2022-08-01T19:10:39.356Z,649.50
2022-08-01T19:13:11.959Z,646.13
2022-08-01T19:15:43.586Z,642.50
2022-08-01T19:18:17.543Z,648.50
2022-08-01T19:20:49.090Z,651.40
2022-08-01T19:23:32.917Z,642.58
2022-08-01T19:26:09.844Z,644.97
2022-08-01T19:28:47.011Z,645.17
2022-08-01T19:31:18.725Z,645.63
2022-08-01T19:33:54.709Z,640.28
2022-08-01T19:36:27.984Z,639.65
2022-08-01T19:38:59.342Z,641.05
2022-08-01T19:41:32.945Z,640.58
2022-08-01T19:44:06.682Z,643.08
2022-08-01T19:46:38.363Z,635.40
2022-08-01T19:49:14.615Z,636.95
2022-08-01T19:51:51.228Z,641.22
2022-08-01T19:54:24.147Z,634.53
2022-08-01T19:56:56.870Z,641.60
2022-08-01T19:59:29.173Z,640.15
2022-08-01T20:02:00.776Z,635.67
2022-08-01T20:04:35.904Z,649.22
2022-08-01T20:07:07.575Z,640.00
2022-08-01T20:09:39.616Z,640.47
2022-08-01T20:12:12.320Z,641.40
2022-08-01T20:14:49.096Z,634.33
2022-08-01T20:17:23.178Z,638.05
2022-08-01T20:19:57.176Z,638.38
2022-08-01T20:22:33.771Z,631.55
2022-08-01T20:25:06.643Z,642.45
2022-08-01T20:27:41.001Z,638.33
2022-08-01T20:30:13.916Z,628.40
2022-08-01T20:32:45.463Z,637.22
2022-08-01T20:35:50.787Z,627.38
2022-08-01T20:38:12.814Z,626.85
2022-08-01T20:40:49.422Z,635.58
2022-08-01T20:43:23.732Z,639.53
2022-08-01T20:45:55.248Z,633.08
2022-08-01T20:51:19.944Z,626.70
2022-08-01T20:56:39.292Z,621.55
2022-08-01T20:59:40.001Z,627.47
2022-08-01T21:02:11.529Z,619.45
2022-08-01T21:04:52.745Z,636.78
2022-08-01T21:07:31.669Z,630.08
2022-08-01T21:10:08.037Z,630.72
2022-08-01T21:12:46.711Z,631.17
2022-08-01T21:15:27.746Z,633.05
2022-08-01T21:18:04.488Z,636.85
2022-08-01T21:20:37.475Z,631.53
2022-08-01T21:23:17.383Z,629.15
2022-08-01T21:25:51.157Z,627.83
2022-08-01T21:28:23.002Z,628.25
2022-08-01T21:30:58.412Z,623.92
2022-08-01T21:33:32.699Z,629.63
2022-08-01T21:36:06.616Z,625.47
2022-08-01T21:38:41.136Z,627.25
2022-08-01T21:41:12.686Z,628.83
2022-08-01T21:43:45.901Z,632.33
2022-08-01T21:46:19.009Z,627.60
2022-08-01T21:48:51.669Z,627.90
2022-08-01T21:51:35.975Z,631.55
2022-08-01T21:54:17.209Z,621.05
2022-08-01T21:56:59.577Z,625.50
2022-08-01T21:59:47.234Z,628.58
2022-08-01T22:02:24.902Z,626.78
2022-08-01T22:05:00.722Z,617.58
2022-08-01T22:07:38.065Z,622.55
2022-08-01T22:10:15.833Z,623.53
2022-08-01T22:12:48.924Z,626.58
2022-08-01T22:15:22.297Z,628.60
2022-08-01T22:17:54.769Z,624.95
2022-08-01T22:20:27.085Z,627.50
2022-08-01T22:22:59.319Z,628.33
2022-08-01T22:25:33.571Z,627.85
2022-08-01T22:28:09.891Z,635.50
2022-08-01T22:30:44.861Z,626.33
2022-08-01T22:33:17.719Z,623.90
2022-08-01T22:35:50.393Z,623.30
2022-08-01T22:38:22.778Z,622.28
2022-08-01T22:41:00.896Z,614.95
2022-08-01T22:43:41.565Z,621.05
2022-08-01T22:46:24.294Z,620.17
2022-08-01T22:49:01.728Z,624.50
2022-08-01T22:51:54.626Z,621.88
2022-08-01T22:54:36.747Z,628.20
2022-08-01T22:57:23.573Z,628.83
2022-08-01T23:00:02.812Z,620.17
2022-08-01T23:02:36.104Z,625.30
2022-08-01T23:05:09.972Z,622.13
2022-08-01T23:07:45.088Z,623.35
2022-08-01T23:10:17.262Z,626.00
2022-08-01T23:15:23.778Z,615.08
2022-08-01T23:17:56.486Z,620.55
2022-08-01T23:20:29.244Z,630.33
2022-08-01T23:23:01.843Z,617.78
2022-08-01T23:25:36.515Z,621.20
2022-08-01T23:28:11.479Z,622.35
2022-08-01T23:30:43.656Z,628.72
2022-08-01T23:33:15.246Z,616.60
2022-08-01T23:35:46.787Z,623.83
2022-08-01T23:38:18.597Z,626.05
2022-08-01T23:40:51.141Z,625.95
2022-08-01T23:43:24.947Z,614.50
2022-08-01T23:46:02.159Z,623.53
2022-08-01T23:48:37.098Z,615.97
2022-08-01T23:51:17.198Z,616.17
2022-08-01T23:53:55.427Z,618.20
2022-08-01T23:56:26.995Z,621.05
2022-08-01T23:59:01.500Z,618.72
